Observation data for Goodlett on 12/08/2018      Previous  Date       Current Mesonet Observations  Soil Data  Daily Summary Page  Observations in Plain Language
KGDS 080600Z 01010KT M01/M01 A3032 RMK A01 T10051010  RH  098%=      5-min Rain = 0
KGDS 080605Z 01010KT M01/M01 A3033 RMK A01 T10051010  RH  097%=      5-min Rain = 0
KGDS 080610Z 36009KT M00/M01 A3033 RMK A01 T10041009  RH  097%=      5-min Rain = 0
KGDS 080615Z 00010KT M00/M01 A3033 RMK A01 T10041009  RH  097%=      5-min Rain = 0
KGDS 080620Z 00010KT M00/M01 A3033 RMK A01 T10041009  RH  097%=      5-min Rain = 0
KGDS 080625Z 00011KT M00/M01 A3033 RMK A01 T10041009  RH  097%=      5-min Rain = 0
KGDS 080630Z 00011KT M00/M01 A3033 RMK A01 T10041009  RH  097%=      5-min Rain = 0
KGDS 080635Z 36010KT M00/M01 A3033 RMK A01 T10031009  RH  097%=      5-min Rain = 0
KGDS 080640Z 00010KT M00/M01 A3033 RMK A01 T10041009  RH  097%=      5-min Rain = 0
KGDS 080645Z 00009KT M00/M01 A3032 RMK A01 T10031008  RH  098%=      5-min Rain = 0
KGDS 080650Z 01010KT M00/M01 A3032 RMK A01 T10041008  RH  098%=      5-min Rain = 0
KGDS 080655Z 01011KT M00/M01 A3032 RMK A01 T10041008  RH  098%=      5-min Rain = 0
KGDS 080700Z 00011KT M00/M01 A3032 RMK A01 T10041009  RH  098%=      5-min Rain = 0
KGDS 080705Z 00013KT M00/M01 A3032 RMK A01 T10041009  RH  098%=      5-min Rain = 0
KGDS 080710Z 01012G17KT M01/M01 A3032 RMK A01 T10051010  RH  098%=      5-min Rain = 0
KGDS 080715Z 01012KT M01/M01 A3031 RMK A01 T10051010  RH  097%=      5-min Rain = 0
KGDS 080720Z 01010G16KT M01/M01 A3031 RMK A01 T10051010  RH  097%=      5-min Rain = 0
KGDS 080725Z 01012KT M01/M01 A3031 RMK A01 T10061011  RH  097%=      5-min Rain = 0
KGDS 080730Z 01010KT M01/M01 A3031 RMK A01 T10061012  RH  097%=      5-min Rain = 0
KGDS 080735Z 01009KT M01/M01 A3031 RMK A01 T10061011  RH  097%=      5-min Rain = 0
KGDS 080740Z 01009KT M01/M01 A3032 RMK A01 T10061011  RH  097%=      5-min Rain = 0
KGDS 080745Z 01009KT M01/M01 A3032 RMK A01 T10061012  RH  097%=      5-min Rain = 0
KGDS 080750Z 01009KT M01/M01 A3032 RMK A01 T10061013  RH  097%=      5-min Rain = 0
KGDS 080755Z 01009KT M01/M01 A3032 RMK A01 T10071013  RH  097%=      5-min Rain = 0
KGDS 080800Z 01009KT M01/M01 A3032 RMK A01 T10071013  RH  096%=      5-min Rain = 0
KGDS 080805Z 01009KT M01/M01 A3032 RMK A01 T10071013  RH  096%=      5-min Rain = 0
KGDS 080810Z 01008KT M01/M01 A3032 RMK A01 T10071013  RH  096%=      5-min Rain = 0
KGDS 080815Z 01008KT M01/M01 A3032 RMK A01 T10071013  RH  096%=      5-min Rain = 0
KGDS 080820Z 01009KT M01/M02 A3032 RMK A01 T10071015  RH  095%=      5-min Rain = 0
KGDS 080825Z 01009KT M01/M02 A3032 RMK A01 T10081016  RH  095%=      5-min Rain = 0
KGDS 080830Z 01009KT M01/M02 A3032 RMK A01 T10081018  RH  094%=      5-min Rain = 0
KGDS 080835Z 01008KT M01/M02 A3032 RMK A01 T10081019  RH  093%=      5-min Rain = 0
KGDS 080840Z 00008KT M01/M02 A3032 RMK A01 T10081019  RH  093%=      5-min Rain = 0
KGDS 080845Z 00008KT M01/M02 A3032 RMK A01 T10081019  RH  093%=      5-min Rain = 0
KGDS 080850Z 00007KT M01/M02 A3032 RMK A01 T10081018  RH  093%=      5-min Rain = 0
KGDS 080855Z 00007KT M01/M02 A3032 RMK A01 T10081018  RH  094%=      5-min Rain = 0
KGDS 080900Z 01007KT M01/M02 A3031 RMK A01 T10081017  RH  094%=      5-min Rain = 0
KGDS 080905Z 01007KT M01/M02 A3032 RMK A01 T10081019  RH  093%=      5-min Rain = 0
KGDS 080910Z 01007KT M01/M02 A3032 RMK A01 T10081021  RH  092%=      5-min Rain = 0
KGDS 080915Z 01006KT M01/M02 A3031 RMK A01 T10081022  RH  091%=      5-min Rain = 0
KGDS 080920Z 01006KT M01/M02 A3031 RMK A01 T10081021  RH  092%=      5-min Rain = 0
KGDS 080925Z 01006KT M01/M02 A3031 RMK A01 T10081020  RH  093%=      5-min Rain = 0
KGDS 080930Z 00006KT M01/M02 A3031 RMK A01 T10091021  RH  092%=      5-min Rain = 0
KGDS 080935Z 00006KT M01/M02 A3031 RMK A01 T10091022  RH  092%=      5-min Rain = 0
KGDS 080940Z 00006KT M01/M02 A3031 RMK A01 T10101022  RH  092%=      5-min Rain = 0
KGDS 080945Z 00007KT M01/M02 A303 RMK A01 T10101023  RH  092%=      5-min Rain = 0
KGDS 080950Z 00007KT M01/M02 A303 RMK A01 T10111024  RH  091%=      5-min Rain = 0
KGDS 080955Z 00006KT M01/M02 A303 RMK A01 T10101023  RH  092%=      5-min Rain = 0
KGDS 081000Z 00006KT M01/M02 A303 RMK A01 T10101023  RH  092%=      5-min Rain = 0
KGDS 081005Z 01006KT M01/M02 A303 RMK A01 T10111024  RH  091%=      5-min Rain = 0
KGDS 081010Z 01006KT M01/M02 A3029 RMK A01 T10101024  RH  091%=      5-min Rain = 0
KGDS 081015Z 01006KT M01/M03 A3029 RMK A01 T10111025  RH  091%=      5-min Rain = 0
KGDS 081020Z 01006KT M01/M03 A3029 RMK A01 T10111026  RH  090%=      5-min Rain = 0
KGDS 081025Z 01005KT M01/M03 A3029 RMK A01 T10111025  RH  091%=      5-min Rain = 0
KGDS 081030Z 01006KT M01/M03 A3029 RMK A01 T10111025  RH  091%=      5-min Rain = 0
KGDS 081035Z 01005KT M01/M03 A3029 RMK A01 T10111025  RH  091%=      5-min Rain = 0
KGDS 081040Z 01005KT M01/M03 A3029 RMK A01 T10111025  RH  091%=      5-min Rain = 0
KGDS 081045Z 01004KT M01/M03 A3029 RMK A01 T10111025  RH  091%=      5-min Rain = 0
KGDS 081050Z 01004KT M01/M03 A303 RMK A01 T10111026  RH  090%=      5-min Rain = 0
KGDS 081055Z 01004KT M01/M03 A3029 RMK A01 T10101025  RH  091%=      5-min Rain = 0
KGDS 081100Z 01004KT M01/M03 A3029 RMK A01 T10101025  RH  090%=      5-min Rain = 0
KGDS 081105Z 01005KT M01/M03 A303 RMK A01 T10111029  RH  088%=      5-min Rain = 0
KGDS 081110Z 01005KT M01/M03 A303 RMK A01 T10111030  RH  088%=      5-min Rain = 0
KGDS 081115Z 01005KT M01/M03 A303 RMK A01 T10121029  RH  089%=      5-min Rain = 0
KGDS 081120Z 01005KT M01/M03 A303 RMK A01 T10131028  RH  090%=      5-min Rain = 0
KGDS 081125Z 01005KT M01/M03 A303 RMK A01 T10131027  RH  091%=      5-min Rain = 0
KGDS 081130Z 01006KT M01/M03 A303 RMK A01 T10141027  RH  091%=      5-min Rain = 0
KGDS 081135Z 01006KT M01/M03 A303 RMK A01 T10141029  RH  091%=      5-min Rain = 0
KGDS 081140Z 01005KT M02/M03 A303 RMK A01 T10151029  RH  091%=      5-min Rain = 0
KGDS 081145Z 01005KT M02/M03 A3031 RMK A01 T10161028  RH  092%=      5-min Rain = 0
KGDS 081150Z 01005KT M02/M03 A3031 RMK A01 T10161028  RH  093%=      5-min Rain = 0
KGDS 081155Z 00005KT M02/M03 A3031 RMK A01 T10161027  RH  093%=      5-min Rain = 0
KGDS 081200Z 36005KT M02/M03 A3031 RMK A01 T10161027  RH  093%=      5-min Rain = 0
KGDS 081205Z 00005KT M02/M03 A3031 RMK A01 T10171027  RH  093%=      5-min Rain = 0
KGDS 081210Z 00004KT M02/M03 A3031 RMK A01 T10161026  RH  094%=      5-min Rain = 0
KGDS 081215Z 00004KT M02/M03 A3031 RMK A01 T10161026  RH  093%=      5-min Rain = 0
KGDS 081220Z 01005KT M02/M03 A3031 RMK A01 T10161027  RH  092%=      5-min Rain = 0
KGDS 081225Z 01005KT M02/M03 A3031 RMK A01 T10151028  RH  091%=      5-min Rain = 0
KGDS 081230Z 01005KT M02/M03 A3031 RMK A01 T10161028  RH  092%=      5-min Rain = 0
KGDS 081235Z 00004KT M02/M03 A3032 RMK A01 T10161027  RH  093%=      5-min Rain = 0
KGDS 081240Z 36004KT M02/M03 A3032 RMK A01 T10161027  RH  093%=      5-min Rain = 0
KGDS 081245Z 35004KT M02/M03 A3032 RMK A01 T10161026  RH  094%=      5-min Rain = 0
KGDS 081250Z 35004KT M02/M03 A3032 RMK A01 T10161026  RH  094%=      5-min Rain = 0
KGDS 081255Z 00005KT M02/M03 A3032 RMK A01 T10161027  RH  093%=      5-min Rain = 0
KGDS 081300Z 00005KT M02/M03 A3032 RMK A01 T10161027  RH  093%=      5-min Rain = 0
KGDS 081305Z 00006KT M02/M03 A3032 RMK A01 T10161028  RH  092%=      5-min Rain = 0
KGDS 081310Z 00006KT M02/M03 A3032 RMK A01 T10161028  RH  093%=      5-min Rain = 0
KGDS 081315Z 00006KT M02/M03 A3032 RMK A01 T10161027  RH  093%=      5-min Rain = 0
KGDS 081320Z 00005KT M02/M03 A3032 RMK A01 T10161027  RH  093%=      5-min Rain = 0
KGDS 081325Z 00005KT M02/M03 A3033 RMK A01 T10161027  RH  093%=      5-min Rain = 0
KGDS 081330Z 00004KT M02/M03 A3033 RMK A01 T10161027  RH  093%=      5-min Rain = 0
KGDS 081335Z 00004KT M02/M03 A3033 RMK A01 T10161027  RH  093%=      5-min Rain = 0
KGDS 081340Z 36003KT M02/M03 A3033 RMK A01 T10161027  RH  093%=      5-min Rain = 0
KGDS 081345Z 36003KT M02/M03 A3033 RMK A01 T10161026  RH  093%=      5-min Rain = 0
KGDS 081350Z 36003KT M02/M03 A3033 RMK A01 T10161026  RH  093%=      5-min Rain = 0
KGDS 081355Z 00003KT M02/M03 A3033 RMK A01 T10161026  RH  094%=      5-min Rain = 0
KGDS 081400Z 35003KT M02/M03 A3033 RMK A01 T10161025  RH  094%=      5-min Rain = 0
KGDS 081405Z 35003KT M02/M03 A3033 RMK A01 T10151025  RH  094%=      5-min Rain = 0
KGDS 081410Z 35002KT M02/M03 A3034 RMK A01 T10151025  RH  094%=      5-min Rain = 0
KGDS 081415Z 34002KT M01/M03 A3034 RMK A01 T10141025  RH  093%=      5-min Rain = 0
KGDS 081420Z 34003KT M01/M02 A3034 RMK A01 T10141024  RH  094%=      5-min Rain = 0
KGDS 081425Z 33003KT M01/M03 A3034 RMK A01 T10141025  RH  093%=      5-min Rain = 0
KGDS 081430Z 33003KT M01/M03 A3034 RMK A01 T10131025  RH  092%=      5-min Rain = 0
KGDS 081435Z 34003KT M01/M03 A3034 RMK A01 T10121025  RH  092%=      5-min Rain = 0
KGDS 081440Z 35004KT M01/M03 A3034 RMK A01 T10121026  RH  091%=      5-min Rain = 0
KGDS 081445Z 35005KT M01/M03 A3034 RMK A01 T10121029  RH  089%=      5-min Rain = 0
KGDS 081450Z 36005KT M01/M03 A3034 RMK A01 T10111030  RH  087%=      5-min Rain = 0
KGDS 081455Z 36004KT M01/M03 A3033 RMK A01 T10101028  RH  088%=      5-min Rain = 0
KGDS 081500Z 35004KT M01/M03 A3034 RMK A01 T10101029  RH  088%=      5-min Rain = 0
KGDS 081505Z 35004KT M01/M03 A3034 RMK A01 T10091029  RH  087%=      5-min Rain = 0
KGDS 081510Z 35004KT M01/M03 A3034 RMK A01 T10081028  RH  087%=      5-min Rain = 0
KGDS 081515Z 35004KT M01/M03 A3034 RMK A01 T10081030  RH  086%=      5-min Rain = 0
KGDS 081520Z 35004KT M01/M03 A3034 RMK A01 T10071028  RH  086%=      5-min Rain = 0
KGDS 081525Z 36004KT M01/M03 A3034 RMK A01 T10061027  RH  086%=      5-min Rain = 0
KGDS 081530Z 00004KT M01/M03 A3034 RMK A01 T10051028  RH  085%=      5-min Rain = 0
KGDS 081535Z 01004KT M00/M03 A3034 RMK A01 T10041026  RH  086%=      5-min Rain = 0
KGDS 081540Z 01004KT M00/M03 A3034 RMK A01 T10021027  RH  084%=      5-min Rain = 0
KGDS 081545Z 01005KT M00/M03 A3034 RMK A01 T10011029  RH  082%=      5-min Rain = 0
KGDS 081550Z 00006KT 00/M03 A3034 RMK A01 T00011029  RH  081%=      5-min Rain = 0
KGDS 081555Z 00006KT 00/M03 A3035 RMK A01 T00011034  RH  078%=      5-min Rain = 0
KGDS 081600Z 00006KT 00/M04 A3035 RMK A01 T00011036  RH  077%=      5-min Rain = 0
KGDS 081605Z 00006KT 00/M03 A3035 RMK A01 T00021033  RH  078%=      5-min Rain = 0
KGDS 081610Z 01008KT 00/M04 A3035 RMK A01 T00011039  RH  075%=      5-min Rain = 0
KGDS 081615Z 01007KT 00/M04 A3035 RMK A01 T00021038  RH  075%=      5-min Rain = 0
KGDS 081620Z 01007KT 00/M04 A3035 RMK A01 T00021037  RH  076%=      5-min Rain = 0
KGDS 081625Z 01007KT 00/M04 A3035 RMK A01 T00011036  RH  076%=      5-min Rain = 0
KGDS 081630Z 00008KT 00/M04 A3035 RMK A01 T00011039  RH  075%=      5-min Rain = 0
KGDS 081635Z 01007KT 00/M04 A3035 RMK A01 T00011039  RH  075%=      5-min Rain = 0
KGDS 081640Z 01007KT 00/M04 A3035 RMK A01 T00011041  RH  074%=      5-min Rain = 0
KGDS 081645Z 00006KT 00/M04 A3035 RMK A01 T00021036  RH  076%=      5-min Rain = 0
KGDS 081650Z 01007KT 00/M04 A3036 RMK A01 T00021040  RH  074%=      5-min Rain = 0
KGDS 081655Z 00006KT 00/M04 A3036 RMK A01 T00031037  RH  075%=      5-min Rain = 0
KGDS 081700Z 36006KT 00/M04 A3036 RMK A01 T00031038  RH  074%=      5-min Rain = 0
KGDS 081705Z 36005KT 00/M04 A3036 RMK A01 T00041036  RH  075%=      5-min Rain = 0
KGDS 081710Z 35005KT 01/M04 A3036 RMK A01 T00051036  RH  074%=      5-min Rain = 0
KGDS 081715Z 35005KT 01/M04 A3035 RMK A01 T00061035  RH  074%=      5-min Rain = 0
KGDS 081720Z 34006KT 01/M04 A3035 RMK A01 T00061037  RH  073%=      5-min Rain = 0
KGDS 081725Z 34006KT 01/M04 A3035 RMK A01 T00061038  RH  073%=      5-min Rain = 0
KGDS 081730Z 34006KT 01/M04 A3035 RMK A01 T00071038  RH  072%=      5-min Rain = 0
KGDS 081735Z 35006KT 01/M04 A3035 RMK A01 T00081039  RH  072%=      5-min Rain = 0.01
KGDS 081740Z 34007KT 01/M04 A3035 RMK A01 T00081039  RH  071%=      5-min Rain = 0
KGDS 081745Z 34006KT 01/M04 A3034 RMK A01 T00081040  RH  071%=      5-min Rain = 0.01
KGDS 081750Z 34006KT 01/M04 A3034 RMK A01 T00091039  RH  071%=      5-min Rain = 0
KGDS 081755Z 33006KT 01/M04 A3034 RMK A01 T00101038  RH  071%=      5-min Rain = 0.01
KGDS 081800Z 33006KT 01/M04 A3034 RMK A01 T00091041  RH  070%=      5-min Rain = 0
KGDS 081805Z 33007KT 01/M04 A3034 RMK A01 T00101039  RH  070%=      5-min Rain = 0
KGDS 081810Z 33007KT 01/M04 A3034 RMK A01 T00101041  RH  069%=      5-min Rain = 0.01
KGDS 081815Z 33008KT 01/M04 A3033 RMK A01 T00111041  RH  068%=      5-min Rain = 0
KGDS 081820Z 33008KT 01/M05 A3033 RMK A01 T00121045  RH  066%=      5-min Rain = 0.01
KGDS 081825Z 33008KT 01/M05 A3033 RMK A01 T00131045  RH  066%=      5-min Rain = 0
KGDS 081830Z 34006KT 01/M04 A3032 RMK A01 T00141042  RH  066%=      5-min Rain = 0
KGDS 081835Z 32008KT 02/M04 A3032 RMK A01 T00161041  RH  066%=      5-min Rain = 0.01
KGDS 081840Z 33007KT 02/M04 A3032 RMK A01 T00161042  RH  065%=      5-min Rain = 0
KGDS 081845Z 32007KT 02/M04 A3032 RMK A01 T00181041  RH  066%=      5-min Rain = 0
KGDS 081850Z 33008KT 02/M04 A3031 RMK A01 T00181044  RH  063%=      5-min Rain = 0
KGDS 081855Z 33008KT 02/M04 A3031 RMK A01 T00191044  RH  063%=      5-min Rain = 0
KGDS 081900Z 34009KT 02/M04 A3031 RMK A01 T00211043  RH  063%=      5-min Rain = 0
KGDS 081905Z 34009KT 02/M05 A3031 RMK A01 T00211049  RH  060%=      5-min Rain = 0
KGDS 081910Z 34008KT 02/M05 A303 RMK A01 T00231045  RH  061%=      5-min Rain = 0
KGDS 081915Z 32009KT 03/M04 A303 RMK A01 T00251042  RH  061%=      5-min Rain = 0
KGDS 081920Z 32009KT 03/M04 A303 RMK A01 T00261044  RH  060%=      5-min Rain = 0
KGDS 081925Z 34010KT 03/M05 A303 RMK A01 T00271048  RH  058%=      5-min Rain = 0
KGDS 081930Z 33009KT 03/M05 A303 RMK A01 T00261051  RH  057%=      5-min Rain = 0
KGDS 081935Z 34009KT 03/M05 A303 RMK A01 T00271048  RH  058%=      5-min Rain = 0
KGDS 081940Z 33009KT 03/M05 A3029 RMK A01 T00271051  RH  057%=      5-min Rain = 0
KGDS 081945Z 34010KT 03/M05 A3029 RMK A01 T00271053  RH  056%=      5-min Rain = 0
KGDS 081950Z 34010KT 03/M05 A3029 RMK A01 T00271051  RH  057%=      5-min Rain = 0
KGDS 081955Z 33010KT 03/M05 A3029 RMK A01 T00271051  RH  057%=      5-min Rain = 0
KGDS 082000Z 34009KT 03/M05 A3029 RMK A01 T00271048  RH  058%=      5-min Rain = 0
KGDS 082005Z 32009KT 03/M05 A3029 RMK A01 T00281045  RH  059%=      5-min Rain = 0
KGDS 082010Z 32010KT 03/M05 A3028 RMK A01 T00291046  RH  058%=      5-min Rain = 0
KGDS 082015Z 32009KT 03/M05 A3028 RMK A01 T00301049  RH  056%=      5-min Rain = 0
KGDS 082020Z 32008KT 03/M05 A3028 RMK A01 T00311052  RH  055%=      5-min Rain = 0
KGDS 082025Z 32010KT 03/M05 A3028 RMK A01 T00331047  RH  056%=      5-min Rain = 0
KGDS 082030Z 32009KT 03/M05 A3028 RMK A01 T00331047  RH  056%=      5-min Rain = 0
KGDS 082035Z 33008KT 03/M05 A3028 RMK A01 T00331052  RH  054%=      5-min Rain = 0
KGDS 082040Z 32009KT 04/M05 A3027 RMK A01 T00351048  RH  055%=      5-min Rain = 0
KGDS 082045Z 32009KT 04/M05 A3027 RMK A01 T00361047  RH  055%=      5-min Rain = 0
KGDS 082050Z 33009KT 04/M05 A3027 RMK A01 T00381050  RH  053%=      5-min Rain = 0
KGDS 082055Z 32009KT 04/M05 A3027 RMK A01 T00411048  RH  053%=      5-min Rain = 0
KGDS 082100Z 34009KT 04/M05 A3027 RMK A01 T00421049  RH  052%=      5-min Rain = 0
KGDS 082105Z 33008KT 04/M05 A3027 RMK A01 T00411046  RH  053%=      5-min Rain = 0
KGDS 082110Z 31009KT 04/M05 A3027 RMK A01 T00421045  RH  053%=      5-min Rain = 0
KGDS 082115Z 31009KT 04/M05 A3027 RMK A01 T00411051  RH  052%=      5-min Rain = 0
KGDS 082120Z 31008KT 04/M05 A3027 RMK A01 T00411052  RH  051%=      5-min Rain = 0
KGDS 082125Z 33006KT 04/M05 A3026 RMK A01 T00411053  RH  051%=      5-min Rain = 0
KGDS 082130Z 31006KT 04/M05 A3026 RMK A01 T00431050  RH  051%=      5-min Rain = 0
KGDS 082135Z 33007KT 05/M05 A3026 RMK A01 T00451048  RH  051%=      5-min Rain = 0
KGDS 082140Z 34009KT 05/M05 A3026 RMK A01 T00451053  RH  049%=      5-min Rain = 0
KGDS 082145Z 33008KT 05/M05 A3026 RMK A01 T00451054  RH  049%=      5-min Rain = 0
KGDS 082150Z 33006KT 05/M06 A3026 RMK A01 T00481055  RH  047%=      5-min Rain = 0
KGDS 082155Z 32008KT 05/M05 A3025 RMK A01 T00471053  RH  048%=      5-min Rain = 0
KGDS 082200Z 33007KT 05/M05 A3025 RMK A01 T00451054  RH  049%=      5-min Rain = 0
KGDS 082205Z 31008KT 04/M05 A3025 RMK A01 T00441053  RH  049%=      5-min Rain = 0
KGDS 082210Z 31008KT 04/M05 A3026 RMK A01 T00441053  RH  050%=      5-min Rain = 0
KGDS 082215Z 31007KT 04/M05 A3026 RMK A01 T00441049  RH  051%=      5-min Rain = 0
KGDS 082220Z 32008KT 04/M05 A3026 RMK A01 T00441051  RH  050%=      5-min Rain = 0
KGDS 082225Z 33007KT 04/M06 A3026 RMK A01 T00441055  RH  049%=      5-min Rain = 0
KGDS 082230Z 32008KT 04/M06 A3026 RMK A01 T00441058  RH  048%=      5-min Rain = 0
KGDS 082235Z 32007KT 04/M06 A3026 RMK A01 T00441057  RH  048%=      5-min Rain = 0
KGDS 082240Z 32006KT 05/M05 A3026 RMK A01 T00451050  RH  050%=      5-min Rain = 0
KGDS 082245Z 32007KT 05/M05 A3026 RMK A01 T00461050  RH  050%=      5-min Rain = 0
KGDS 082250Z 33007KT 04/M06 A3026 RMK A01 T00441058  RH  048%=      5-min Rain = 0
KGDS 082255Z 33007KT 05/M06 A3026 RMK A01 T00451059  RH  047%=      5-min Rain = 0
KGDS 082300Z 33007KT 05/M06 A3026 RMK A01 T00451055  RH  048%=      5-min Rain = 0
KGDS 082305Z 33006KT 04/M06 A3026 RMK A01 T00441056  RH  048%=      5-min Rain = 0
KGDS 082310Z 33006KT 04/M05 A3026 RMK A01 T00421049  RH  052%=      5-min Rain = 0
KGDS 082315Z 32005KT 04/M05 A3026 RMK A01 T00391047  RH  053%=      5-min Rain = 0
KGDS 082320Z 32005KT 04/M05 A3026 RMK A01 T00371045  RH  055%=      5-min Rain = 0
KGDS 082325Z 33005KT 03/M05 A3026 RMK A01 T00341045  RH  056%=      5-min Rain = 0
KGDS 082330Z 35005KT 03/M04 A3026 RMK A01 T00301044  RH  058%=      5-min Rain = 0
KGDS 082335Z 35005KT 03/M05 A3026 RMK A01 T00271047  RH  059%=      5-min Rain = 0
KGDS 082340Z 35004KT 03/M05 A3026 RMK A01 T00251046  RH  060%=      5-min Rain = 0
KGDS 082345Z 36005KT 02/M05 A3026 RMK A01 T00231047  RH  060%=      5-min Rain = 0
KGDS 082350Z 36004KT 02/M05 A3026 RMK A01 T00221048  RH  060%=      5-min Rain = 0
KGDS 082355Z 36004KT 02/M05 A3026 RMK A01 T00231050  RH  059%=      5-min Rain = 0
KGDS 090000Z 00004KT 02/M05 A3026 RMK A01 T00231048  RH  060%=      5-min Rain = 0
KGDS 090005Z 01004KT 02/M05 A3027 RMK A01 T00231052  RH  058%=      5-min Rain = 0
KGDS 090010Z 02003KT 02/M05 A3027 RMK A01 T00231053  RH  057%=      5-min Rain = 0
KGDS 090015Z 02003KT 02/M05 A3027 RMK A01 T00221054  RH  057%=      5-min Rain = 0
KGDS 090020Z 03004KT 02/M06 A3027 RMK A01 T00211055  RH  057%=      5-min Rain = 0
KGDS 090025Z 03004KT 02/M06 A3028 RMK A01 T00201056  RH  057%=      5-min Rain = 0
KGDS 090030Z 03004KT 02/M06 A3028 RMK A01 T00191056  RH  057%=      5-min Rain = 0
KGDS 090035Z 03004KT 02/M06 A3028 RMK A01 T00181056  RH  058%=      5-min Rain = 0
KGDS 090040Z 03005KT 02/M06 A3028 RMK A01 T00161056  RH  059%=      5-min Rain = 0
KGDS 090045Z 03006KT 02/M06 A3028 RMK A01 T00151056  RH  059%=      5-min Rain = 0
KGDS 090050Z 03006KT 01/M06 A3028 RMK A01 T00141055  RH  060%=      5-min Rain = 0
KGDS 090055Z 03005KT 02/M06 A3028 RMK A01 T00171057  RH  058%=      5-min Rain = 0
KGDS 090100Z 02005KT 01/M06 A3028 RMK A01 T00131055  RH  060%=      5-min Rain = 0
KGDS 090105Z 02004KT 01/M06 A3028 RMK A01 T00111058  RH  060%=      5-min Rain = 0
KGDS 090110Z 03003KT 01/M06 A3028 RMK A01 T00111060  RH  059%=      5-min Rain = 0
KGDS 090115Z 03003KT 01/M06 A3028 RMK A01 T00101061  RH  059%=      5-min Rain = 0
KGDS 090120Z 03004KT 01/M06 A3028 RMK A01 T00101061  RH  059%=      5-min Rain = 0
KGDS 090125Z 02004KT 01/M06 A3028 RMK A01 T00091059  RH  060%=      5-min Rain = 0
KGDS 090130Z 02003KT 01/M06 A3028 RMK A01 T00081060  RH  061%=      5-min Rain = 0
KGDS 090135Z 02003KT 01/M06 A3028 RMK A01 T00061060  RH  061%=      5-min Rain = 0
KGDS 090140Z 01003KT 00/M06 A3028 RMK A01 T00041060  RH  062%=      5-min Rain = 0
KGDS 090145Z 01002KT 00/M06 A3028 RMK A01 T00041062  RH  061%=      5-min Rain = 0
KGDS 090150Z 36002KT 00/M06 A3029 RMK A01 T00031061  RH  063%=      5-min Rain = 0
KGDS 090155Z 26002KT M01/M05 A3029 RMK A01 T10071049  RH  074%=      5-min Rain = 0
KGDS 090200Z 29003KT M01/M05 A3029 RMK A01 T10081052  RH  073%=      5-min Rain = 0
KGDS 090205Z 29002KT M00/M06 A3029 RMK A01 T10021055  RH  067%=      5-min Rain = 0
KGDS 090210Z 29003KT M00/M05 A303 RMK A01 T10021054  RH  068%=      5-min Rain = 0
KGDS 090215Z 32003KT M00/M06 A303 RMK A01 T10011055  RH  067%=      5-min Rain = 0
KGDS 090220Z 35004KT 00/M06 A303 RMK A01 T00021059  RH  064%=      5-min Rain = 0
KGDS 090225Z 33003KT 01/M06 A303 RMK A01 T00071061  RH  060%=      5-min Rain = 0
KGDS 090230Z 33004KT 01/M06 A303 RMK A01 T00051059  RH  063%=      5-min Rain = 0
KGDS 090235Z 34003KT 01/M06 A303 RMK A01 T00051059  RH  062%=      5-min Rain = 0
KGDS 090240Z 33003KT 01/M06 A303 RMK A01 T00071062  RH  060%=      5-min Rain = 0
KGDS 090245Z 33003KT 01/M06 A303 RMK A01 T00081063  RH  059%=      5-min Rain = 0
KGDS 090250Z 33003KT 01/M06 A303 RMK A01 T00071063  RH  059%=      5-min Rain = 0
KGDS 090255Z 33003KT 01/M06 A303 RMK A01 T00051061  RH  061%=      5-min Rain = 0
KGDS 090300Z 32004KT 01/M06 A303 RMK A01 T00051062  RH  061%=      5-min Rain = 0
KGDS 090305Z 32004KT 00/M06 A303 RMK A01 T00021059  RH  064%=      5-min Rain = 0
KGDS 090310Z 32004KT 00/06 A303 RMK A01 T00000-57  RH  066%=      5-min Rain = 0
KGDS 090315Z 32005KT 00/06 A303 RMK A01 T00000-56  RH  066%=      5-min Rain = 0
KGDS 090320Z 32005KT 00/06 A303 RMK A01 T00000-58  RH  065%=      5-min Rain = 0
KGDS 090325Z 32005KT 00/06 A303 RMK A01 T00000-59  RH  064%=      5-min Rain = 0
KGDS 090330Z 32005KT 00/06 A303 RMK A01 T00000-59  RH  064%=      5-min Rain = 0
KGDS 090335Z 33004KT 00/M06 A303 RMK A01 T00021062  RH  062%=      5-min Rain = 0
KGDS 090340Z 33005KT 00/M06 A303 RMK A01 T00031064  RH  061%=      5-min Rain = 0
KGDS 090345Z 33005KT 00/M06 A303 RMK A01 T00011061  RH  063%=      5-min Rain = 0
KGDS 090350Z 33005KT M00/M06 A303 RMK A01 T10041059  RH  067%=      5-min Rain = 0
KGDS 090355Z 32006KT M01/M06 A303 RMK A01 T10061057  RH  068%=      5-min Rain = 0
KGDS 090400Z 32006KT M01/M06 A303 RMK A01 T10061057  RH  069%=      5-min Rain = 0
KGDS 090405Z 31006KT M01/M06 A303 RMK A01 T10061057  RH  069%=      5-min Rain = 0
KGDS 090410Z 31007KT M01/M06 A303 RMK A01 T10061056  RH  069%=      5-min Rain = 0
KGDS 090415Z 31008KT M01/M06 A303 RMK A01 T10071055  RH  070%=      5-min Rain = 0
KGDS 090420Z 31008KT M01/M05 A303 RMK A01 T10081054  RH  071%=      5-min Rain = 0
KGDS 090425Z 32008KT M01/M06 A303 RMK A01 T10081056  RH  071%=      5-min Rain = 0
KGDS 090430Z 32008KT M01/M06 A303 RMK A01 T10091056  RH  071%=      5-min Rain = 0
KGDS 090435Z 31008KT M01/M06 A3031 RMK A01 T10101056  RH  071%=      5-min Rain = 0
KGDS 090440Z 31007KT M01/M06 A3031 RMK A01 T10101057  RH  071%=      5-min Rain = 0
KGDS 090445Z 31008KT M01/M06 A3031 RMK A01 T10111057  RH  071%=      5-min Rain = 0
KGDS 090450Z 31007KT M01/M06 A3031 RMK A01 T10111058  RH  071%=      5-min Rain = 0
KGDS 090455Z 32006KT M01/M06 A3031 RMK A01 T10111059  RH  070%=      5-min Rain = 0
KGDS 090500Z 32007KT M01/M06 A3031 RMK A01 T10111059  RH  070%=      5-min Rain = 0
KGDS 090505Z 31006KT M01/M06 A3031 RMK A01 T10121060  RH  070%=      5-min Rain = 0
KGDS 090510Z 31007KT M01/M06 A3031 RMK A01 T10121061  RH  069%=      5-min Rain = 0
KGDS 090515Z 31007KT M01/M06 A3031 RMK A01 T10131061  RH  070%=      5-min Rain = 0
KGDS 090520Z 31007KT M01/M06 A3032 RMK A01 T10141060  RH  071%=      5-min Rain = 0
KGDS 090525Z 32007KT M01/M06 A3032 RMK A01 T10141060  RH  071%=      5-min Rain = 0
KGDS 090530Z 32006KT M01/M06 A3032 RMK A01 T10131062  RH  070%=      5-min Rain = 0
KGDS 090535Z 32006KT M02/M06 A3032 RMK A01 T10151061  RH  071%=      5-min Rain = 0
KGDS 090540Z 32006KT M02/M06 A3032 RMK A01 T10151061  RH  071%=      5-min Rain = 0
KGDS 090545Z 31006KT M02/M06 A3032 RMK A01 T10151063  RH  070%=      5-min Rain = 0
KGDS 090550Z 32007KT M02/M06 A3032 RMK A01 T10151063  RH  070%=      5-min Rain = 0
KGDS 090555Z 32007KT M01/M06 A3032 RMK A01 T10141064  RH  069%=      5-min Rain = 0

Page generated in 0.0151 seconds.